sensor_id;sensor_type;location;lat;lon;timestamp;pressure;altitude;pressure_sealevel;temperature;humidity
22582;BME280;47125;48.542;9.052;2023-02-28T00:07:48;96525.47;;;-0.62;58.56
22582;BME280;47125;48.542;9.052;2023-02-28T00:17:52;96529.28;;;-0.82;59.79
22582;BME280;47125;48.542;9.052;2023-02-28T00:27:55;96522.84;;;-0.88;59.27
22582;BME280;47125;48.542;9.052;2023-02-28T00:38:01;96517.84;;;-0.99;60.05
22582;BME280;47125;48.542;9.052;2023-02-28T00:48:04;96521.75;;;-1.03;60.62
22582;BME280;47125;48.542;9.052;2023-02-28T00:58:08;96520.50;;;-1.17;61.18
22582;BME280;47125;48.542;9.052;2023-02-28T01:08:11;96513.34;;;-1.32;61.81
22582;BME280;47125;48.542;9.052;2023-02-28T01:18:16;96506.44;;;-1.16;61.55
22582;BME280;47125;48.542;9.052;2023-02-28T01:28:18;96513.84;;;-1.29;62.08
22582;BME280;47125;48.542;9.052;2023-02-28T01:38:22;96498.59;;;-1.33;62.25
22582;BME280;47125;48.542;9.052;2023-02-28T01:48:26;96495.53;;;-1.46;62.70
22582;BME280;47125;48.542;9.052;2023-02-28T01:58:31;96490.31;;;-1.64;63.55
22582;BME280;47125;48.542;9.052;2023-02-28T02:08:33;96481.63;;;-1.29;63.89
22582;BME280;47125;48.542;9.052;2023-02-28T02:18:37;96466.94;;;-1.40;64.50
22582;BME280;47125;48.542;9.052;2023-02-28T02:28:56;96467.19;;;-1.51;65.30
22582;BME280;47125;48.542;9.052;2023-02-28T02:39:06;96462.94;;;-1.26;64.83
22582;BME280;47125;48.542;9.052;2023-02-28T02:49:15;96464.28;;;-1.48;65.62
22582;BME280;47125;48.542;9.052;2023-02-28T02:59:20;96473.16;;;-1.41;65.65
22582;BME280;47125;48.542;9.052;2023-02-28T03:09:25;96477.88;;;-1.27;65.31
22582;BME280;47125;48.542;9.052;2023-02-28T03:19:33;96473.53;;;-1.36;65.83
22582;BME280;47125;48.542;9.052;2023-02-28T03:29:37;96472.44;;;-1.51;66.81
22582;BME280;47125;48.542;9.052;2023-02-28T03:39:43;96460.00;;;-1.23;66.71
22582;BME280;47125;48.542;9.052;2023-02-28T03:49:48;96465.94;;;-1.21;67.19
22582;BME280;47125;48.542;9.052;2023-02-28T03:59:54;96477.34;;;-1.30;67.85
22582;BME280;47125;48.542;9.052;2023-02-28T04:09:59;96468.47;;;-1.12;67.69
22582;BME280;47125;48.542;9.052;2023-02-28T04:20:03;96464.75;;;-1.27;68.65
22582;BME280;47125;48.542;9.052;2023-02-28T04:30:11;96462.75;;;-1.33;69.25
22582;BME280;47125;48.542;9.052;2023-02-28T04:40:15;96464.63;;;-0.99;68.30
22582;BME280;47125;48.542;9.052;2023-02-28T04:50:17;96465.84;;;-1.12;69.05
22582;BME280;47125;48.542;9.052;2023-02-28T05:00:21;96460.91;;;-1.15;69.74
22582;BME280;47125;48.542;9.052;2023-02-28T05:10:24;96470.78;;;-1.08;70.42
22582;BME280;47125;48.542;9.052;2023-02-28T05:20:28;96482.63;;;-1.22;71.84
22582;BME280;47125;48.542;9.052;2023-02-28T05:30:30;96485.72;;;-1.27;72.38
22582;BME280;47125;48.542;9.052;2023-02-28T05:40:34;96485.38;;;-1.06;71.76
22582;BME280;47125;48.542;9.052;2023-02-28T05:50:37;96485.03;;;-1.29;73.74
22582;BME280;47125;48.542;9.052;2023-02-28T06:00:41;96474.59;;;-1.03;72.45
22582;BME280;47125;48.542;9.052;2023-02-28T06:10:43;96490.72;;;-1.16;72.73
22582;BME280;47125;48.542;9.052;2023-02-28T06:20:53;96514.66;;;-1.11;72.82
22582;BME280;47125;48.542;9.052;2023-02-28T06:30:56;96500.28;;;-1.06;72.14
22582;BME280;47125;48.542;9.052;2023-02-28T06:41:00;96518.13;;;-1.02;72.15
22582;BME280;47125;48.542;9.052;2023-02-28T06:51:03;96525.25;;;-0.69;70.06
22582;BME280;47125;48.542;9.052;2023-02-28T07:01:07;96524.06;;;-0.74;70.28
22582;BME280;47125;48.542;9.052;2023-02-28T07:11:10;96538.63;;;-0.80;69.22
22582;BME280;47125;48.542;9.052;2023-02-28T07:21:14;96544.84;;;-0.55;68.09
22582;BME280;47125;48.542;9.052;2023-02-28T07:31:17;96546.53;;;-0.72;68.39
22582;BME280;47125;48.542;9.052;2023-02-28T07:41:21;96540.84;;;-0.67;68.25
22582;BME280;47125;48.542;9.052;2023-02-28T07:51:25;96550.34;;;-0.40;67.59
22582;BME280;47125;48.542;9.052;2023-02-28T08:01:29;96555.06;;;-0.18;66.48
22582;BME280;47125;48.542;9.052;2023-02-28T08:11:32;96561.38;;;-0.29;66.78
22582;BME280;47125;48.542;9.052;2023-02-28T08:21:36;96574.22;;;-0.18;66.36
22582;BME280;47125;48.542;9.052;2023-02-28T08:31:40;96574.72;;;-0.22;66.67
22582;BME280;47125;48.542;9.052;2023-02-28T08:41:44;96584.66;;;0.42;64.86
22582;BME280;47125;48.542;9.052;2023-02-28T08:51:53;96576.53;;;0.27;64.17
22582;BME280;47125;48.542;9.052;2023-02-28T09:01:57;96592.22;;;0.45;64.15
22582;BME280;47125;48.542;9.052;2023-02-28T09:12:00;96600.25;;;0.35;62.98
22582;BME280;47125;48.542;9.052;2023-02-28T09:22:04;96610.38;;;0.96;61.71
22582;BME280;47125;48.542;9.052;2023-02-28T09:32:07;96609.75;;;1.19;61.37
22582;BME280;47125;48.542;9.052;2023-02-28T09:42:13;96611.72;;;1.17;60.50
22582;BME280;47125;48.542;9.052;2023-02-28T09:52:21;96608.44;;;1.47;59.52
22582;BME280;47125;48.542;9.052;2023-02-28T10:02:38;96621.91;;;1.60;59.32
22582;BME280;47125;48.542;9.052;2023-02-28T10:12:43;96634.44;;;1.50;59.01
22582;BME280;47125;48.542;9.052;2023-02-28T10:22:52;96632.28;;;1.61;59.03
22582;BME280;47125;48.542;9.052;2023-02-28T10:32:55;96644.75;;;1.59;59.04
22582;BME280;47125;48.542;9.052;2023-02-28T10:43:00;96640.47;;;1.83;58.35
22582;BME280;47125;48.542;9.052;2023-02-28T11:03:43;96643.50;;;2.27;58.06
22582;BME280;47125;48.542;9.052;2023-02-28T11:13:50;96648.50;;;2.91;56.90
22582;BME280;47125;48.542;9.052;2023-02-28T11:23:58;96655.19;;;3.02;55.77
22582;BME280;47125;48.542;9.052;2023-02-28T11:34:07;96662.75;;;3.27;54.99
22582;BME280;47125;48.542;9.052;2023-02-28T11:44:29;96643.72;;;3.17;55.20
22582;BME280;47125;48.542;9.052;2023-02-28T12:05:10;96632.31;;;4.43;52.11
22582;BME280;47125;48.542;9.052;2023-02-28T12:15:32;96633.59;;;4.98;52.24
22582;BME280;47125;48.542;9.052;2023-02-28T12:25:57;96625.66;;;6.38;48.72
22582;BME280;47125;48.542;9.052;2023-02-28T13:07:07;96586.38;;;7.81;44.47
22582;BME280;47125;48.542;9.052;2023-02-28T13:17:14;96586.78;;;7.26;44.17
22582;BME280;47125;48.542;9.052;2023-02-28T13:27:31;96582.78;;;9.73;42.36
22582;BME280;47125;48.542;9.052;2023-02-28T13:37:36;96579.13;;;10.60;39.53
22582;BME280;47125;48.542;9.052;2023-02-28T13:47:41;96585.94;;;8.94;41.27
22582;BME280;47125;48.542;9.052;2023-02-28T13:57:48;96579.50;;;8.70;42.25
22582;BME280;47125;48.542;9.052;2023-02-28T14:07:56;96578.22;;;7.56;43.95
22582;BME280;47125;48.542;9.052;2023-02-28T14:17:59;96574.13;;;7.34;44.46
22582;BME280;47125;48.542;9.052;2023-02-28T14:28:06;96572.28;;;7.87;43.94
22582;BME280;47125;48.542;9.052;2023-02-28T14:38:17;96571.88;;;7.90;43.45
22582;BME280;47125;48.542;9.052;2023-02-28T14:48:21;96572.72;;;7.45;44.31
22582;BME280;47125;48.542;9.052;2023-02-28T14:58:27;96574.03;;;6.95;45.45
22582;BME280;47125;48.542;9.052;2023-02-28T15:08:31;96581.69;;;7.37;44.82
22582;BME280;47125;48.542;9.052;2023-02-28T15:18:40;96579.28;;;6.75;46.55
22582;BME280;47125;48.542;9.052;2023-02-28T15:39:52;96581.41;;;5.83;47.26
22582;BME280;47125;48.542;9.052;2023-02-28T15:49:56;96583.13;;;5.70;47.32
22582;BME280;47125;48.542;9.052;2023-02-28T16:00:02;96588.75;;;5.60;47.85
22582;BME280;47125;48.542;9.052;2023-02-28T16:10:07;96589.38;;;5.34;48.97
22582;BME280;47125;48.542;9.052;2023-02-28T16:20:13;96583.78;;;5.08;49.54
22582;BME280;47125;48.542;9.052;2023-02-28T16:30:18;96600.31;;;4.89;50.23
22582;BME280;47125;48.542;9.052;2023-02-28T16:40:24;96599.59;;;4.66;50.78
22582;BME280;47125;48.542;9.052;2023-02-28T16:50:30;96607.50;;;4.15;51.98
22582;BME280;47125;48.542;9.052;2023-02-28T17:00:35;96620.19;;;4.34;51.49
22582;BME280;47125;48.542;9.052;2023-02-28T17:10:38;96619.81;;;4.23;52.45
22582;BME280;47125;48.542;9.052;2023-02-28T17:20:42;96646.16;;;4.16;52.59
22582;BME280;47125;48.542;9.052;2023-02-28T17:30:45;96643.69;;;3.63;53.81
22582;BME280;47125;48.542;9.052;2023-02-28T17:40:53;96659.19;;;3.66;53.55
22582;BME280;47125;48.542;9.052;2023-02-28T17:50:58;96665.81;;;3.16;54.42
22582;BME280;47125;48.542;9.052;2023-02-28T18:01:02;96661.00;;;3.43;53.72
22582;BME280;47125;48.542;9.052;2023-02-28T18:11:04;96670.22;;;3.24;54.99
22582;BME280;47125;48.542;9.052;2023-02-28T18:21:08;96674.03;;;2.91;55.38
22582;BME280;47125;48.542;9.052;2023-02-28T18:31:12;96676.16;;;2.95;55.43
22582;BME280;47125;48.542;9.052;2023-02-28T18:41:21;96672.09;;;2.85;55.43
22582;BME280;47125;48.542;9.052;2023-02-28T18:51:24;96675.56;;;2.77;56.18
22582;BME280;47125;48.542;9.052;2023-02-28T19:01:28;96667.41;;;2.64;56.53
22582;BME280;47125;48.542;9.052;2023-02-28T19:11:32;96665.03;;;2.38;57.58
22582;BME280;47125;48.542;9.052;2023-02-28T19:21:38;96673.94;;;4.27;72.42
22582;BME280;47125;48.542;9.052;2023-02-28T19:31:40;96669.09;;;3.18;56.38
22582;BME280;47125;48.542;9.052;2023-02-28T19:41:45;96666.63;;;2.47;58.18
22582;BME280;47125;48.542;9.052;2023-02-28T19:51:48;96671.41;;;2.44;58.14
22582;BME280;47125;48.542;9.052;2023-02-28T20:01:52;96666.22;;;2.28;58.42
22582;BME280;47125;48.542;9.052;2023-02-28T20:11:56;96656.19;;;2.70;57.61
22582;BME280;47125;48.542;9.052;2023-02-28T20:22:01;96656.69;;;2.10;59.21
22582;BME280;47125;48.542;9.052;2023-02-28T20:32:04;96658.63;;;2.33;58.77
22582;BME280;47125;48.542;9.052;2023-02-28T20:42:10;96652.97;;;2.44;58.22
22582;BME280;47125;48.542;9.052;2023-02-28T20:52:13;96643.25;;;1.97;59.71
22582;BME280;47125;48.542;9.052;2023-02-28T21:02:16;96652.88;;;2.29;58.83
22582;BME280;47125;48.542;9.052;2023-02-28T21:12:21;96650.84;;;1.76;60.55
22582;BME280;47125;48.542;9.052;2023-02-28T21:22:29;96653.63;;;1.75;60.81
22582;BME280;47125;48.542;9.052;2023-02-28T21:32:33;96656.91;;;1.93;60.06
22582;BME280;47125;48.542;9.052;2023-02-28T21:42:40;96656.78;;;1.86;60.37
22582;BME280;47125;48.542;9.052;2023-02-28T21:52:42;96655.44;;;1.82;60.60
22582;BME280;47125;48.542;9.052;2023-02-28T22:02:46;96643.25;;;1.81;60.38
22582;BME280;47125;48.542;9.052;2023-02-28T22:12:49;96638.66;;;1.75;61.10
22582;BME280;47125;48.542;9.052;2023-02-28T22:22:53;96643.31;;;1.65;61.18
22582;BME280;47125;48.542;9.052;2023-02-28T22:32:57;96642.78;;;1.78;60.72
22582;BME280;47125;48.542;9.052;2023-02-28T22:43:02;96633.09;;;1.70;60.82
22582;BME280;47125;48.542;9.052;2023-02-28T22:53:05;96629.47;;;1.63;61.28
22582;BME280;47125;48.542;9.052;2023-02-28T23:03:10;96623.06;;;1.33;62.09
22582;BME280;47125;48.542;9.052;2023-02-28T23:13:13;96632.75;;;1.08;62.95
22582;BME280;47125;48.542;9.052;2023-02-28T23:23:17;96635.88;;;0.96;63.74
22582;BME280;47125;48.542;9.052;2023-02-28T23:33:20;96643.50;;;0.65;64.88
22582;BME280;47125;48.542;9.052;2023-02-28T23:43:25;96638.78;;;0.85;64.12
22582;BME280;47125;48.542;9.052;2023-02-28T23:53:29;96638.28;;;0.73;64.54
